sensor_id;sensor_type;location;lat;lon;timestamp;P1;durP1;ratioP1;P2;durP2;ratioP2
52540;SDS011;56003;48.556;9.370;2022-07-29T00:01:26;7.70;;;6.67;;
52540;SDS011;56003;48.556;9.370;2022-07-29T00:03:52;6.67;;;6.20;;
52540;SDS011;56003;48.556;9.370;2022-07-29T00:06:17;5.80;;;5.40;;
52540;SDS011;56003;48.556;9.370;2022-07-29T00:08:42;5.90;;;5.10;;
52540;SDS011;56003;48.556;9.370;2022-07-29T00:11:08;5.63;;;5.13;;
52540;SDS011;56003;48.556;9.370;2022-07-29T00:13:33;5.30;;;4.80;;
52540;SDS011;56003;48.556;9.370;2022-07-29T00:15:59;3.90;;;3.67;;
52540;SDS011;56003;48.556;9.370;2022-07-29T00:18:24;4.97;;;4.33;;
52540;SDS011;56003;48.556;9.370;2022-07-29T00:20:49;5.07;;;4.60;;
52540;SDS011;56003;48.556;9.370;2022-07-29T00:23:14;4.80;;;4.40;;
52540;SDS011;56003;48.556;9.370;2022-07-29T00:25:40;5.30;;;4.90;;
52540;SDS011;56003;48.556;9.370;2022-07-29T00:28:05;5.20;;;4.80;;
52540;SDS011;56003;48.556;9.370;2022-07-29T00:30:30;5.00;;;4.53;;
52540;SDS011;56003;48.556;9.370;2022-07-29T00:32:56;5.40;;;4.90;;
52540;SDS011;56003;48.556;9.370;2022-07-29T00:35:21;5.20;;;4.70;;
52540;SDS011;56003;48.556;9.370;2022-07-29T00:38:05;4.80;;;4.40;;
52540;SDS011;56003;48.556;9.370;2022-07-29T00:40:30;4.07;;;3.77;;
52540;SDS011;56003;48.556;9.370;2022-07-29T00:42:56;4.67;;;4.27;;
52540;SDS011;56003;48.556;9.370;2022-07-29T00:45:21;4.73;;;4.33;;
52540;SDS011;56003;48.556;9.370;2022-07-29T00:47:47;4.20;;;3.77;;
52540;SDS011;56003;48.556;9.370;2022-07-29T00:50:13;4.20;;;3.80;;
52540;SDS011;56003;48.556;9.370;2022-07-29T00:52:39;4.60;;;4.27;;
52540;SDS011;56003;48.556;9.370;2022-07-29T00:55:06;4.23;;;3.93;;
52540;SDS011;56003;48.556;9.370;2022-07-29T00:57:34;4.33;;;3.93;;
52540;SDS011;56003;48.556;9.370;2022-07-29T01:00:00;4.27;;;3.97;;
52540;SDS011;56003;48.556;9.370;2022-07-29T01:02:26;4.20;;;3.80;;
52540;SDS011;56003;48.556;9.370;2022-07-29T01:04:51;4.77;;;4.37;;
52540;SDS011;56003;48.556;9.370;2022-07-29T01:07:18;4.53;;;4.10;;
52540;SDS011;56003;48.556;9.370;2022-07-29T01:09:43;4.60;;;4.23;;
52540;SDS011;56003;48.556;9.370;2022-07-29T01:12:11;5.27;;;4.00;;
52540;SDS011;56003;48.556;9.370;2022-07-29T01:14:44;5.23;;;4.83;;
52540;SDS011;56003;48.556;9.370;2022-07-29T01:17:12;5.10;;;4.70;;
52540;SDS011;56003;48.556;9.370;2022-07-29T01:22:38;4.93;;;4.53;;
52540;SDS011;56003;48.556;9.370;2022-07-29T01:28:39;5.00;;;4.00;;
52540;SDS011;56003;48.556;9.370;2022-07-29T01:30:50;4.30;;;3.90;;
52540;SDS011;56003;48.556;9.370;2022-07-29T01:33:17;3.97;;;3.67;;
52540;SDS011;56003;48.556;9.370;2022-07-29T01:36:05;5.03;;;4.60;;
52540;SDS011;56003;48.556;9.370;2022-07-29T01:38:35;7.10;;;4.73;;
52540;SDS011;56003;48.556;9.370;2022-07-29T01:41:05;5.03;;;4.63;;
52540;SDS011;56003;48.556;9.370;2022-07-29T01:43:56;4.83;;;4.43;;
52540;SDS011;56003;48.556;9.370;2022-07-29T01:46:27;5.30;;;4.90;;
52540;SDS011;56003;48.556;9.370;2022-07-29T01:48:57;4.97;;;4.57;;
52540;SDS011;56003;48.556;9.370;2022-07-29T01:51:40;5.87;;;5.03;;
52540;SDS011;56003;48.556;9.370;2022-07-29T01:54:17;8.20;;;5.40;;
52540;SDS011;56003;48.556;9.370;2022-07-29T01:56:51;5.40;;;5.00;;
52540;SDS011;56003;48.556;9.370;2022-07-29T01:59:20;4.80;;;4.40;;
52540;SDS011;56003;48.556;9.370;2022-07-29T02:01:48;6.00;;;5.03;;
52540;SDS011;56003;48.556;9.370;2022-07-29T02:04:17;6.67;;;5.10;;
52540;SDS011;56003;48.556;9.370;2022-07-29T02:06:44;5.00;;;4.70;;
52540;SDS011;56003;48.556;9.370;2022-07-29T02:09:12;5.27;;;4.87;;
52540;SDS011;56003;48.556;9.370;2022-07-29T02:11:40;4.97;;;4.50;;
52540;SDS011;56003;48.556;9.370;2022-07-29T02:14:13;6.83;;;4.80;;
52540;SDS011;56003;48.556;9.370;2022-07-29T02:16:40;4.97;;;4.67;;
52540;SDS011;56003;48.556;9.370;2022-07-29T02:19:06;7.87;;;5.23;;
52540;SDS011;56003;48.556;9.370;2022-07-29T02:21:34;5.40;;;4.90;;
52540;SDS011;56003;48.556;9.370;2022-07-29T02:24:00;5.00;;;4.60;;
52540;SDS011;56003;48.556;9.370;2022-07-29T02:26:27;4.83;;;4.53;;
52540;SDS011;56003;48.556;9.370;2022-07-29T02:28:56;5.40;;;4.90;;
52540;SDS011;56003;48.556;9.370;2022-07-29T02:31:24;5.17;;;4.77;;
52540;SDS011;56003;48.556;9.370;2022-07-29T02:33:53;4.67;;;4.27;;
52540;SDS011;56003;48.556;9.370;2022-07-29T02:36:21;4.67;;;4.37;;
52540;SDS011;56003;48.556;9.370;2022-07-29T02:38:48;5.07;;;4.67;;
52540;SDS011;56003;48.556;9.370;2022-07-29T02:41:15;5.43;;;4.73;;
52540;SDS011;56003;48.556;9.370;2022-07-29T02:43:43;4.80;;;4.40;;
52540;SDS011;56003;48.556;9.370;2022-07-29T02:46:13;5.83;;;4.30;;
52540;SDS011;56003;48.556;9.370;2022-07-29T02:48:46;4.57;;;4.10;;
52540;SDS011;56003;48.556;9.370;2022-07-29T02:51:18;4.63;;;4.23;;
52540;SDS011;56003;48.556;9.370;2022-07-29T02:53:49;5.47;;;4.97;;
52540;SDS011;56003;48.556;9.370;2022-07-29T02:56:18;5.03;;;4.63;;
52540;SDS011;56003;48.556;9.370;2022-07-29T02:58:55;5.67;;;4.90;;
52540;SDS011;56003;48.556;9.370;2022-07-29T03:01:24;4.53;;;4.23;;
52540;SDS011;56003;48.556;9.370;2022-07-29T03:03:53;4.33;;;4.00;;
52540;SDS011;56003;48.556;9.370;2022-07-29T03:06:20;5.13;;;3.73;;
52540;SDS011;56003;48.556;9.370;2022-07-29T03:08:47;4.90;;;4.40;;
52540;SDS011;56003;48.556;9.370;2022-07-29T03:11:13;4.57;;;4.27;;
52540;SDS011;56003;48.556;9.370;2022-07-29T03:13:40;4.70;;;4.30;;
52540;SDS011;56003;48.556;9.370;2022-07-29T03:16:06;4.20;;;3.90;;
52540;SDS011;56003;48.556;9.370;2022-07-29T03:18:33;4.63;;;4.23;;
52540;SDS011;56003;48.556;9.370;2022-07-29T03:21:00;4.70;;;4.30;;
52540;SDS011;56003;48.556;9.370;2022-07-29T03:23:25;4.47;;;4.17;;
52540;SDS011;56003;48.556;9.370;2022-07-29T03:25:52;6.20;;;4.30;;
52540;SDS011;56003;48.556;9.370;2022-07-29T03:28:19;5.10;;;4.60;;
52540;SDS011;56003;48.556;9.370;2022-07-29T03:30:44;3.80;;;3.50;;
52540;SDS011;56003;48.556;9.370;2022-07-29T03:33:10;4.43;;;4.13;;
52540;SDS011;56003;48.556;9.370;2022-07-29T03:35:35;4.80;;;4.40;;
52540;SDS011;56003;48.556;9.370;2022-07-29T03:38:00;6.53;;;4.00;;
52540;SDS011;56003;48.556;9.370;2022-07-29T03:40:27;4.20;;;3.90;;
52540;SDS011;56003;48.556;9.370;2022-07-29T03:43:00;5.43;;;5.03;;
52540;SDS011;56003;48.556;9.370;2022-07-29T03:45:27;4.43;;;4.13;;
52540;SDS011;56003;48.556;9.370;2022-07-29T03:47:56;5.27;;;4.87;;
52540;SDS011;56003;48.556;9.370;2022-07-29T03:50:26;5.60;;;4.27;;
52540;SDS011;56003;48.556;9.370;2022-07-29T03:52:53;3.97;;;3.67;;
52540;SDS011;56003;48.556;9.370;2022-07-29T03:55:18;4.53;;;4.13;;
52540;SDS011;56003;48.556;9.370;2022-07-29T03:57:44;3.67;;;3.40;;
52540;SDS011;56003;48.556;9.370;2022-07-29T04:00:11;14.20;;;3.93;;
52540;SDS011;56003;48.556;9.370;2022-07-29T04:02:37;3.47;;;3.17;;
52540;SDS011;56003;48.556;9.370;2022-07-29T04:05:04;4.10;;;3.90;;
52540;SDS011;56003;48.556;9.370;2022-07-29T04:07:29;3.93;;;3.73;;
52540;SDS011;56003;48.556;9.370;2022-07-29T04:09:55;3.53;;;3.23;;
52540;SDS011;56003;48.556;9.370;2022-07-29T04:12:20;4.10;;;3.70;;
52540;SDS011;56003;48.556;9.370;2022-07-29T04:14:45;4.70;;;4.30;;
52540;SDS011;56003;48.556;9.370;2022-07-29T04:17:11;4.90;;;4.40;;
52540;SDS011;56003;48.556;9.370;2022-07-29T04:19:36;4.93;;;4.37;;
52540;SDS011;56003;48.556;9.370;2022-07-29T04:22:01;5.83;;;5.23;;
52540;SDS011;56003;48.556;9.370;2022-07-29T04:24:27;6.03;;;5.63;;
52540;SDS011;56003;48.556;9.370;2022-07-29T04:26:53;6.93;;;6.37;;
52540;SDS011;56003;48.556;9.370;2022-07-29T04:29:18;7.73;;;5.80;;
52540;SDS011;56003;48.556;9.370;2022-07-29T04:31:44;6.97;;;6.47;;
52540;SDS011;56003;48.556;9.370;2022-07-29T04:34:10;6.63;;;5.93;;
52540;SDS011;56003;48.556;9.370;2022-07-29T04:36:36;6.93;;;6.33;;
52540;SDS011;56003;48.556;9.370;2022-07-29T04:39:01;7.30;;;6.63;;
52540;SDS011;56003;48.556;9.370;2022-07-29T04:41:27;6.97;;;6.50;;
52540;SDS011;56003;48.556;9.370;2022-07-29T04:43:53;6.43;;;5.93;;
52540;SDS011;56003;48.556;9.370;2022-07-29T04:46:18;6.97;;;6.33;;
52540;SDS011;56003;48.556;9.370;2022-07-29T04:48:47;7.00;;;6.40;;
52540;SDS011;56003;48.556;9.370;2022-07-29T04:51:12;6.63;;;6.00;;
52540;SDS011;56003;48.556;9.370;2022-07-29T04:53:38;15.93;;;6.17;;
52540;SDS011;56003;48.556;9.370;2022-07-29T04:56:04;7.17;;;6.63;;
52540;SDS011;56003;48.556;9.370;2022-07-29T04:58:30;7.17;;;6.50;;
52540;SDS011;56003;48.556;9.370;2022-07-29T05:00:55;7.40;;;6.70;;
52540;SDS011;56003;48.556;9.370;2022-07-29T05:03:21;7.33;;;6.63;;
52540;SDS011;56003;48.556;9.370;2022-07-29T05:05:46;8.33;;;7.53;;
52540;SDS011;56003;48.556;9.370;2022-07-29T05:08:11;7.30;;;6.70;;
52540;SDS011;56003;48.556;9.370;2022-07-29T05:10:37;8.20;;;7.50;;
52540;SDS011;56003;48.556;9.370;2022-07-29T05:13:05;8.23;;;7.53;;
52540;SDS011;56003;48.556;9.370;2022-07-29T05:15:32;6.70;;;6.10;;
52540;SDS011;56003;48.556;9.370;2022-07-29T05:17:57;6.50;;;6.00;;
52540;SDS011;56003;48.556;9.370;2022-07-29T05:20:23;8.10;;;6.17;;
52540;SDS011;56003;48.556;9.370;2022-07-29T05:22:53;6.73;;;6.23;;
52540;SDS011;56003;48.556;9.370;2022-07-29T05:25:18;6.83;;;6.10;;
52540;SDS011;56003;48.556;9.370;2022-07-29T05:27:44;7.43;;;6.47;;
52540;SDS011;56003;48.556;9.370;2022-07-29T05:30:09;6.17;;;5.67;;
52540;SDS011;56003;48.556;9.370;2022-07-29T05:32:35;6.40;;;5.90;;
52540;SDS011;56003;48.556;9.370;2022-07-29T05:35:00;8.93;;;5.30;;
52540;SDS011;56003;48.556;9.370;2022-07-29T05:37:25;6.17;;;5.63;;
52540;SDS011;56003;48.556;9.370;2022-07-29T05:39:50;6.93;;;6.27;;
52540;SDS011;56003;48.556;9.370;2022-07-29T05:42:16;6.73;;;5.07;;
52540;SDS011;56003;48.556;9.370;2022-07-29T05:44:41;5.00;;;4.53;;
52540;SDS011;56003;48.556;9.370;2022-07-29T05:47:06;4.40;;;4.00;;
52540;SDS011;56003;48.556;9.370;2022-07-29T05:49:32;4.07;;;3.27;;
52540;SDS011;56003;48.556;9.370;2022-07-29T05:51:57;4.20;;;3.80;;
52540;SDS011;56003;48.556;9.370;2022-07-29T05:54:23;3.43;;;3.23;;
52540;SDS011;56003;48.556;9.370;2022-07-29T05:56:49;4.90;;;3.40;;
52540;SDS011;56003;48.556;9.370;2022-07-29T05:59:14;7.40;;;3.37;;
52540;SDS011;56003;48.556;9.370;2022-07-29T06:01:39;4.73;;;3.90;;
52540;SDS011;56003;48.556;9.370;2022-07-29T06:04:05;3.97;;;3.53;;
52540;SDS011;56003;48.556;9.370;2022-07-29T06:06:31;3.80;;;3.17;;
52540;SDS011;56003;48.556;9.370;2022-07-29T06:08:57;4.00;;;3.70;;
52540;SDS011;56003;48.556;9.370;2022-07-29T06:11:22;3.63;;;3.33;;
52540;SDS011;56003;48.556;9.370;2022-07-29T06:13:48;4.73;;;3.47;;
52540;SDS011;56003;48.556;9.370;2022-07-29T06:16:13;4.67;;;3.90;;
52540;SDS011;56003;48.556;9.370;2022-07-29T06:18:38;3.03;;;2.83;;
52540;SDS011;56003;48.556;9.370;2022-07-29T06:21:07;3.53;;;3.23;;
52540;SDS011;56003;48.556;9.370;2022-07-29T06:23:33;3.30;;;3.10;;
52540;SDS011;56003;48.556;9.370;2022-07-29T06:25:58;2.90;;;2.70;;
52540;SDS011;56003;48.556;9.370;2022-07-29T06:28:24;3.87;;;3.50;;
52540;SDS011;56003;48.556;9.370;2022-07-29T06:30:49;5.70;;;3.50;;
52540;SDS011;56003;48.556;9.370;2022-07-29T06:33:18;3.97;;;3.67;;
52540;SDS011;56003;48.556;9.370;2022-07-29T06:35:43;4.47;;;4.07;;
52540;SDS011;56003;48.556;9.370;2022-07-29T06:38:10;4.83;;;4.40;;
52540;SDS011;56003;48.556;9.370;2022-07-29T06:40:36;6.10;;;4.50;;
52540;SDS011;56003;48.556;9.370;2022-07-29T06:43:20;4.90;;;4.50;;
52540;SDS011;56003;48.556;9.370;2022-07-29T06:45:45;8.03;;;5.20;;
52540;SDS011;56003;48.556;9.370;2022-07-29T06:48:11;4.90;;;4.40;;
52540;SDS011;56003;48.556;9.370;2022-07-29T06:50:36;4.77;;;4.47;;
52540;SDS011;56003;48.556;9.370;2022-07-29T06:53:01;4.30;;;3.97;;
52540;SDS011;56003;48.556;9.370;2022-07-29T06:55:27;5.10;;;4.70;;
52540;SDS011;56003;48.556;9.370;2022-07-29T06:57:52;4.77;;;4.37;;
52540;SDS011;56003;48.556;9.370;2022-07-29T07:00:18;5.07;;;4.47;;
52540;SDS011;56003;48.556;9.370;2022-07-29T07:02:43;4.43;;;4.10;;
52540;SDS011;56003;48.556;9.370;2022-07-29T07:05:08;5.00;;;4.50;;
52540;SDS011;56003;48.556;9.370;2022-07-29T07:07:33;7.03;;;4.80;;
52540;SDS011;56003;48.556;9.370;2022-07-29T07:09:59;4.77;;;4.40;;
52540;SDS011;56003;48.556;9.370;2022-07-29T07:12:24;4.63;;;4.23;;
52540;SDS011;56003;48.556;9.370;2022-07-29T07:14:50;5.60;;;5.10;;
52540;SDS011;56003;48.556;9.370;2022-07-29T07:17:15;5.27;;;4.23;;
52540;SDS011;56003;48.556;9.370;2022-07-29T07:19:40;4.87;;;4.43;;
52540;SDS011;56003;48.556;9.370;2022-07-29T07:22:06;4.77;;;4.37;;
52540;SDS011;56003;48.556;9.370;2022-07-29T07:24:31;6.40;;;4.07;;
52540;SDS011;56003;48.556;9.370;2022-07-29T07:26:56;4.20;;;3.90;;
52540;SDS011;56003;48.556;9.370;2022-07-29T07:29:22;6.27;;;3.90;;
52540;SDS011;56003;48.556;9.370;2022-07-29T07:31:47;4.03;;;3.50;;
52540;SDS011;56003;48.556;9.370;2022-07-29T07:34:13;3.97;;;3.67;;
52540;SDS011;56003;48.556;9.370;2022-07-29T07:36:38;6.77;;;4.07;;
52540;SDS011;56003;48.556;9.370;2022-07-29T07:39:03;4.73;;;4.30;;
52540;SDS011;56003;48.556;9.370;2022-07-29T07:41:37;5.97;;;3.40;;
52540;SDS011;56003;48.556;9.370;2022-07-29T07:44:03;4.17;;;3.77;;
52540;SDS011;56003;48.556;9.370;2022-07-29T07:46:29;5.67;;;4.10;;
52540;SDS011;56003;48.556;9.370;2022-07-29T07:48:54;5.03;;;3.63;;
52540;SDS011;56003;48.556;9.370;2022-07-29T07:51:29;5.40;;;4.47;;
52540;SDS011;56003;48.556;9.370;2022-07-29T07:53:54;4.17;;;3.70;;
52540;SDS011;56003;48.556;9.370;2022-07-29T07:56:27;5.90;;;4.47;;
52540;SDS011;56003;48.556;9.370;2022-07-29T07:58:56;5.00;;;4.60;;
52540;SDS011;56003;48.556;9.370;2022-07-29T08:01:27;4.73;;;4.23;;
52540;SDS011;56003;48.556;9.370;2022-07-29T08:03:55;5.93;;;4.40;;
52540;SDS011;56003;48.556;9.370;2022-07-29T08:06:35;4.77;;;3.77;;
52540;SDS011;56003;48.556;9.370;2022-07-29T08:09:02;3.87;;;3.67;;
52540;SDS011;56003;48.556;9.370;2022-07-29T08:11:28;5.23;;;4.73;;
52540;SDS011;56003;48.556;9.370;2022-07-29T08:13:56;10.87;;;3.80;;
52540;SDS011;56003;48.556;9.370;2022-07-29T08:16:29;4.03;;;3.70;;
52540;SDS011;56003;48.556;9.370;2022-07-29T08:19:06;4.90;;;4.13;;
52540;SDS011;56003;48.556;9.370;2022-07-29T08:21:53;4.30;;;3.90;;
52540;SDS011;56003;48.556;9.370;2022-07-29T08:24:19;5.97;;;4.40;;
52540;SDS011;56003;48.556;9.370;2022-07-29T08:27:04;7.80;;;4.83;;
52540;SDS011;56003;48.556;9.370;2022-07-29T08:29:44;4.63;;;4.17;;
52540;SDS011;56003;48.556;9.370;2022-07-29T08:32:09;4.93;;;4.53;;
52540;SDS011;56003;48.556;9.370;2022-07-29T08:34:38;4.50;;;4.20;;
52540;SDS011;56003;48.556;9.370;2022-07-29T08:39:56;4.43;;;4.13;;
52540;SDS011;56003;48.556;9.370;2022-07-29T08:42:21;5.40;;;4.40;;
52540;SDS011;56003;48.556;9.370;2022-07-29T08:44:47;6.23;;;4.17;;
52540;SDS011;56003;48.556;9.370;2022-07-29T08:47:16;5.63;;;4.10;;
52540;SDS011;56003;48.556;9.370;2022-07-29T08:49:42;5.10;;;4.33;;
52540;SDS011;56003;48.556;9.370;2022-07-29T08:52:10;7.90;;;4.70;;
52540;SDS011;56003;48.556;9.370;2022-07-29T08:54:39;4.67;;;4.00;;
52540;SDS011;56003;48.556;9.370;2022-07-29T08:57:17;5.87;;;4.67;;
52540;SDS011;56003;48.556;9.370;2022-07-29T08:59:46;4.23;;;3.97;;
52540;SDS011;56003;48.556;9.370;2022-07-29T09:02:20;5.23;;;4.80;;
52540;SDS011;56003;48.556;9.370;2022-07-29T09:04:48;4.97;;;4.10;;
52540;SDS011;56003;48.556;9.370;2022-07-29T09:07:14;5.37;;;4.30;;
52540;SDS011;56003;48.556;9.370;2022-07-29T09:09:51;5.50;;;4.63;;
52540;SDS011;56003;48.556;9.370;2022-07-29T09:12:21;6.53;;;4.07;;
52540;SDS011;56003;48.556;9.370;2022-07-29T09:14:50;8.50;;;4.50;;
52540;SDS011;56003;48.556;9.370;2022-07-29T09:20:19;8.30;;;4.80;;
52540;SDS011;56003;48.556;9.370;2022-07-29T09:22:49;5.10;;;4.50;;
52540;SDS011;56003;48.556;9.370;2022-07-29T09:28:09;5.10;;;4.60;;
52540;SDS011;56003;48.556;9.370;2022-07-29T09:30:51;7.77;;;4.87;;
52540;SDS011;56003;48.556;9.370;2022-07-29T09:33:21;5.70;;;5.20;;
52540;SDS011;56003;48.556;9.370;2022-07-29T09:39:01;5.00;;;4.17;;
52540;SDS011;56003;48.556;9.370;2022-07-29T09:41:28;6.83;;;5.03;;
52540;SDS011;56003;48.556;9.370;2022-07-29T09:43:57;5.10;;;4.53;;
52540;SDS011;56003;48.556;9.370;2022-07-29T09:46:26;7.40;;;4.87;;
52540;SDS011;56003;48.556;9.370;2022-07-29T09:49:11;5.03;;;4.63;;
52540;SDS011;56003;48.556;9.370;2022-07-29T09:51:38;5.20;;;4.70;;
52540;SDS011;56003;48.556;9.370;2022-07-29T09:54:26;8.53;;;4.70;;
52540;SDS011;56003;48.556;9.370;2022-07-29T09:56:51;5.30;;;4.63;;
52540;SDS011;56003;48.556;9.370;2022-07-29T09:59:17;5.50;;;4.70;;
52540;SDS011;56003;48.556;9.370;2022-07-29T10:01:45;5.97;;;4.80;;
52540;SDS011;56003;48.556;9.370;2022-07-29T10:04:13;6.60;;;4.53;;
52540;SDS011;56003;48.556;9.370;2022-07-29T10:09:23;7.20;;;4.87;;
52540;SDS011;56003;48.556;9.370;2022-07-29T10:12:10;5.87;;;5.03;;
52540;SDS011;56003;48.556;9.370;2022-07-29T10:14:48;6.30;;;4.40;;
52540;SDS011;56003;48.556;9.370;2022-07-29T10:17:17;6.67;;;5.93;;
52540;SDS011;56003;48.556;9.370;2022-07-29T10:19:49;4.90;;;4.40;;
52540;SDS011;56003;48.556;9.370;2022-07-29T10:22:18;5.83;;;5.27;;
52540;SDS011;56003;48.556;9.370;2022-07-29T10:24:44;4.70;;;4.30;;
52540;SDS011;56003;48.556;9.370;2022-07-29T10:27:16;5.93;;;4.20;;
52540;SDS011;56003;48.556;9.370;2022-07-29T10:29:42;6.00;;;5.10;;
52540;SDS011;56003;48.556;9.370;2022-07-29T10:32:16;5.07;;;4.63;;
52540;SDS011;56003;48.556;9.370;2022-07-29T10:43:29;7.70;;;4.50;;
52540;SDS011;56003;48.556;9.370;2022-07-29T10:46:05;5.63;;;4.70;;
52540;SDS011;56003;48.556;9.370;2022-07-29T10:52:01;6.37;;;4.80;;
52540;SDS011;56003;48.556;9.370;2022-07-29T11:05:02;8.93;;;5.20;;
52540;SDS011;56003;48.556;9.370;2022-07-29T11:07:33;4.67;;;4.27;;
52540;SDS011;56003;48.556;9.370;2022-07-29T11:15:21;5.50;;;5.00;;
52540;SDS011;56003;48.556;9.370;2022-07-29T11:23:21;6.10;;;4.83;;
52540;SDS011;56003;48.556;9.370;2022-07-29T11:28:34;5.37;;;4.87;;
52540;SDS011;56003;48.556;9.370;2022-07-29T11:31:04;6.20;;;5.57;;
52540;SDS011;56003;48.556;9.370;2022-07-29T11:33:35;4.73;;;4.43;;
52540;SDS011;56003;48.556;9.370;2022-07-29T11:38:51;4.73;;;4.33;;
52540;SDS011;56003;48.556;9.370;2022-07-29T11:43:49;5.53;;;5.03;;
52540;SDS011;56003;48.556;9.370;2022-07-29T11:47:02;4.73;;;4.43;;
52540;SDS011;56003;48.556;9.370;2022-07-29T11:49:12;4.30;;;4.00;;
52540;SDS011;56003;48.556;9.370;2022-07-29T11:51:39;6.10;;;4.70;;
52540;SDS011;56003;48.556;9.370;2022-07-29T11:54:08;5.27;;;4.70;;
52540;SDS011;56003;48.556;9.370;2022-07-29T11:56:42;4.67;;;4.27;;
52540;SDS011;56003;48.556;9.370;2022-07-29T11:59:11;4.33;;;4.03;;
52540;SDS011;56003;48.556;9.370;2022-07-29T12:01:36;3.70;;;3.40;;
52540;SDS011;56003;48.556;9.370;2022-07-29T12:04:04;6.97;;;4.40;;
52540;SDS011;56003;48.556;9.370;2022-07-29T12:06:30;3.40;;;3.07;;
52540;SDS011;56003;48.556;9.370;2022-07-29T12:08:56;2.93;;;2.73;;
52540;SDS011;56003;48.556;9.370;2022-07-29T12:11:21;2.93;;;2.63;;
52540;SDS011;56003;48.556;9.370;2022-07-29T12:13:47;2.60;;;2.40;;
52540;SDS011;56003;48.556;9.370;2022-07-29T12:16:13;2.00;;;1.90;;
52540;SDS011;56003;48.556;9.370;2022-07-29T12:18:41;2.37;;;2.17;;
52540;SDS011;56003;48.556;9.370;2022-07-29T12:21:07;2.03;;;1.90;;
52540;SDS011;56003;48.556;9.370;2022-07-29T12:23:36;2.53;;;2.33;;
52540;SDS011;56003;48.556;9.370;2022-07-29T12:26:05;2.40;;;2.30;;
52540;SDS011;56003;48.556;9.370;2022-07-29T12:28:31;3.27;;;2.60;;
52540;SDS011;56003;48.556;9.370;2022-07-29T12:31:02;4.07;;;2.83;;
52540;SDS011;56003;48.556;9.370;2022-07-29T12:33:28;3.20;;;2.47;;
52540;SDS011;56003;48.556;9.370;2022-07-29T12:35:54;3.00;;;2.80;;
52540;SDS011;56003;48.556;9.370;2022-07-29T12:38:22;5.00;;;2.80;;
52540;SDS011;56003;48.556;9.370;2022-07-29T12:40:51;3.00;;;2.70;;
52540;SDS011;56003;48.556;9.370;2022-07-29T12:43:19;3.10;;;2.90;;
52540;SDS011;56003;48.556;9.370;2022-07-29T12:45:46;3.33;;;3.03;;
52540;SDS011;56003;48.556;9.370;2022-07-29T12:48:18;5.67;;;3.17;;
52540;SDS011;56003;48.556;9.370;2022-07-29T12:51:07;3.87;;;3.50;;
52540;SDS011;56003;48.556;9.370;2022-07-29T12:53:34;3.93;;;3.60;;
52540;SDS011;56003;48.556;9.370;2022-07-29T12:56:04;3.50;;;3.20;;
52540;SDS011;56003;48.556;9.370;2022-07-29T12:58:34;4.87;;;4.33;;
52540;SDS011;56003;48.556;9.370;2022-07-29T13:01:05;6.00;;;3.80;;
52540;SDS011;56003;48.556;9.370;2022-07-29T13:03:55;4.07;;;3.63;;
52540;SDS011;56003;48.556;9.370;2022-07-29T13:06:38;4.07;;;3.77;;
52540;SDS011;56003;48.556;9.370;2022-07-29T13:09:17;4.80;;;4.10;;
52540;SDS011;56003;48.556;9.370;2022-07-29T13:11:45;6.23;;;5.40;;
52540;SDS011;56003;48.556;9.370;2022-07-29T13:14:34;4.90;;;4.30;;
52540;SDS011;56003;48.556;9.370;2022-07-29T13:21:58;5.03;;;4.67;;
52540;SDS011;56003;48.556;9.370;2022-07-29T13:24:23;5.13;;;4.77;;
52540;SDS011;56003;48.556;9.370;2022-07-29T13:26:48;5.97;;;5.30;;
52540;SDS011;56003;48.556;9.370;2022-07-29T13:29:14;6.03;;;5.10;;
52540;SDS011;56003;48.556;9.370;2022-07-29T13:31:39;5.83;;;5.33;;
52540;SDS011;56003;48.556;9.370;2022-07-29T13:34:04;4.90;;;4.50;;
52540;SDS011;56003;48.556;9.370;2022-07-29T13:36:30;5.93;;;5.43;;
52540;SDS011;56003;48.556;9.370;2022-07-29T13:38:56;7.43;;;5.83;;
52540;SDS011;56003;48.556;9.370;2022-07-29T13:41:21;4.87;;;4.50;;
52540;SDS011;56003;48.556;9.370;2022-07-29T13:43:47;5.20;;;4.80;;
52540;SDS011;56003;48.556;9.370;2022-07-29T13:46:12;5.83;;;4.87;;
52540;SDS011;56003;48.556;9.370;2022-07-29T13:48:37;7.73;;;5.47;;
52540;SDS011;56003;48.556;9.370;2022-07-29T13:51:03;6.90;;;5.90;;
52540;SDS011;56003;48.556;9.370;2022-07-29T13:53:28;5.90;;;5.00;;
52540;SDS011;56003;48.556;9.370;2022-07-29T13:55:54;6.50;;;5.90;;
52540;SDS011;56003;48.556;9.370;2022-07-29T13:58:20;6.10;;;5.50;;
52540;SDS011;56003;48.556;9.370;2022-07-29T14:08:57;10.40;;;9.60;;
52540;SDS011;56003;48.556;9.370;2022-07-29T14:14:25;12.83;;;11.73;;
52540;SDS011;56003;48.556;9.370;2022-07-29T14:17:12;10.63;;;9.63;;
52540;SDS011;56003;48.556;9.370;2022-07-29T14:19:50;10.13;;;9.00;;
52540;SDS011;56003;48.556;9.370;2022-07-29T14:26:53;7.70;;;6.80;;
52540;SDS011;56003;48.556;9.370;2022-07-29T14:29:22;14.50;;;9.10;;
52540;SDS011;56003;48.556;9.370;2022-07-29T14:31:47;8.47;;;7.57;;
52540;SDS011;56003;48.556;9.370;2022-07-29T14:34:13;8.30;;;7.70;;
52540;SDS011;56003;48.556;9.370;2022-07-29T14:36:40;9.77;;;8.77;;
52540;SDS011;56003;48.556;9.370;2022-07-29T14:39:05;13.07;;;12.03;;
52540;SDS011;56003;48.556;9.370;2022-07-29T14:41:31;10.00;;;9.00;;
52540;SDS011;56003;48.556;9.370;2022-07-29T14:43:56;11.00;;;10.10;;
52540;SDS011;56003;48.556;9.370;2022-07-29T14:46:22;9.97;;;9.07;;
52540;SDS011;56003;48.556;9.370;2022-07-29T14:48:48;9.73;;;8.73;;
52540;SDS011;56003;48.556;9.370;2022-07-29T14:51:13;10.33;;;9.10;;
52540;SDS011;56003;48.556;9.370;2022-07-29T14:53:42;10.80;;;9.50;;
52540;SDS011;56003;48.556;9.370;2022-07-29T14:56:08;15.23;;;9.73;;
52540;SDS011;56003;48.556;9.370;2022-07-29T14:58:34;8.47;;;7.87;;
52540;SDS011;56003;48.556;9.370;2022-07-29T15:00:59;7.70;;;7.10;;
52540;SDS011;56003;48.556;9.370;2022-07-29T15:03:26;8.80;;;7.13;;
52540;SDS011;56003;48.556;9.370;2022-07-29T15:05:52;7.17;;;6.67;;
52540;SDS011;56003;48.556;9.370;2022-07-29T15:08:18;7.60;;;6.90;;
52540;SDS011;56003;48.556;9.370;2022-07-29T15:10:43;6.50;;;6.10;;
52540;SDS011;56003;48.556;9.370;2022-07-29T15:13:09;7.10;;;6.50;;
52540;SDS011;56003;48.556;9.370;2022-07-29T15:15:34;7.00;;;6.17;;
52540;SDS011;56003;48.556;9.370;2022-07-29T15:18:00;9.20;;;6.40;;
52540;SDS011;56003;48.556;9.370;2022-07-29T15:20:25;6.30;;;5.80;;
52540;SDS011;56003;48.556;9.370;2022-07-29T15:22:52;6.03;;;5.50;;
52540;SDS011;56003;48.556;9.370;2022-07-29T15:25:21;6.10;;;5.60;;
52540;SDS011;56003;48.556;9.370;2022-07-29T15:27:47;6.70;;;6.07;;
52540;SDS011;56003;48.556;9.370;2022-07-29T15:30:12;7.43;;;6.73;;
52540;SDS011;56003;48.556;9.370;2022-07-29T15:32:42;6.20;;;5.67;;
52540;SDS011;56003;48.556;9.370;2022-07-29T15:35:08;7.00;;;6.40;;
52540;SDS011;56003;48.556;9.370;2022-07-29T15:37:35;7.80;;;6.83;;
52540;SDS011;56003;48.556;9.370;2022-07-29T15:40:01;7.73;;;6.63;;
52540;SDS011;56003;48.556;9.370;2022-07-29T15:42:26;6.50;;;6.00;;
52540;SDS011;56003;48.556;9.370;2022-07-29T15:44:51;7.20;;;6.50;;
52540;SDS011;56003;48.556;9.370;2022-07-29T15:47:17;9.00;;;6.43;;
52540;SDS011;56003;48.556;9.370;2022-07-29T15:49:42;6.90;;;6.30;;
52540;SDS011;56003;48.556;9.370;2022-07-29T15:52:09;7.93;;;7.30;;
52540;SDS011;56003;48.556;9.370;2022-07-29T15:54:35;7.43;;;6.90;;
52540;SDS011;56003;48.556;9.370;2022-07-29T15:57:03;6.67;;;6.07;;
52540;SDS011;56003;48.556;9.370;2022-07-29T15:59:29;7.30;;;6.70;;
52540;SDS011;56003;48.556;9.370;2022-07-29T16:01:55;6.30;;;5.90;;
52540;SDS011;56003;48.556;9.370;2022-07-29T16:04:20;7.80;;;7.10;;
52540;SDS011;56003;48.556;9.370;2022-07-29T16:06:47;7.80;;;5.63;;
52540;SDS011;56003;48.556;9.370;2022-07-29T16:09:13;6.30;;;5.90;;
52540;SDS011;56003;48.556;9.370;2022-07-29T16:11:39;5.90;;;5.50;;
52540;SDS011;56003;48.556;9.370;2022-07-29T16:14:04;5.13;;;4.73;;
52540;SDS011;56003;48.556;9.370;2022-07-29T16:16:30;7.70;;;6.97;;